Weather at Sanders Airport [CLOSED]

Public forecast

Using degrees Fahrenheit for public forecast. Weather courtesy of forecast.io.

Closest aviation weather report (METAR) to Sanders Airport

Closest report is Phoenix Sky Harbor International Airport, 5.4 nm (10.0 km) NNW.

2024/05/22 04:51 (retrieved 18 minutes ago)

KPHX 220451Z 00000KT 10SM CLR 28/M09 A2978 RMK AO2 SLP065 T02831089

Closest aviation forecast (TAF) to Sanders Airport

Forecast is more than 6 hours old.

Closest forecast is Aeropuerto Internacional Gral. Rodolfo S├ínchez Taboada, 170.8 nm (316.4 km) WSW.

2024/05/21 18:07 (retrieved 11 hours ago)

TAF MMML 211705Z 2118/2218 25010KT P6SM SKC BECMG 2202/2203 32005KT FM221700 20015KT P6SM SKC